createdAt,value
2023-11-01T00:00:19.047Z,3.05
2023-11-01T00:02:51.020Z,2.30
2023-11-01T00:05:20.966Z,3.28
2023-11-01T00:07:50.438Z,2.50
2023-11-01T00:10:20.152Z,2.08
2023-11-01T00:12:49.798Z,3.35
2023-11-01T00:15:19.398Z,2.78
2023-11-01T00:17:50.496Z,2.70
2023-11-01T00:20:20.177Z,3.28
2023-11-01T00:22:49.979Z,2.40
2023-11-01T00:25:19.962Z,2.50
2023-11-01T00:27:49.512Z,2.63
2023-11-01T00:30:19.303Z,2.88
2023-11-01T00:32:51.551Z,2.40
2023-11-01T00:35:21.295Z,2.47
2023-11-01T00:37:50.903Z,2.78
2023-11-01T00:40:20.873Z,2.08
2023-11-01T00:42:50.633Z,2.10
2023-11-01T00:46:28.825Z,2.58
2023-11-01T00:48:58.502Z,2.78
2023-11-01T00:51:28.099Z,1.88
2023-11-01T00:53:57.720Z,2.40
2023-11-01T00:56:27.353Z,2.80
2023-11-01T00:58:57.139Z,2.10
2023-11-01T01:01:28.279Z,2.60
2023-11-01T01:03:58.033Z,2.10
2023-11-01T01:06:27.755Z,2.17
2023-11-01T01:08:57.841Z,2.13
2023-11-01T01:11:27.615Z,2.42
2023-11-01T01:13:57.486Z,2.20
2023-11-01T01:16:28.656Z,2.33
2023-11-01T01:18:58.369Z,2.65
2023-11-01T01:21:28.023Z,1.60
2023-11-01T01:23:57.638Z,2.53
2023-11-01T01:26:28.073Z,1.92
2023-11-01T01:28:57.551Z,1.83
2023-11-01T01:31:28.779Z,2.40
2023-11-01T01:33:58.437Z,1.92
2023-11-01T01:36:27.991Z,2.10
2023-11-01T01:38:57.621Z,1.77
2023-11-01T01:41:27.207Z,2.25
2023-11-01T01:43:56.994Z,1.85
2023-11-01T01:46:31.943Z,2.13
2023-11-01T01:49:02.400Z,2.05
2023-11-01T01:51:32.113Z,2.03
2023-11-01T01:54:02.315Z,2.50
2023-11-01T01:56:32.722Z,2.15
2023-11-01T01:59:02.477Z,1.90
2023-11-01T02:01:42.727Z,2.10
2023-11-01T02:04:15.375Z,2.72
2023-11-01T02:06:45.821Z,2.13
2023-11-01T02:09:17.084Z,1.75
2023-11-01T02:11:46.894Z,2.42
2023-11-01T02:14:16.898Z,2.40
2023-11-01T02:16:48.094Z,2.28
2023-11-01T02:19:19.937Z,2.10
2023-11-01T02:21:49.510Z,2.33
2023-11-01T02:24:20.586Z,2.67
2023-11-01T02:26:50.306Z,1.80
2023-11-01T02:29:19.777Z,2.30
2023-11-01T02:31:49.529Z,2.30
2023-11-01T02:34:19.207Z,1.98
2023-11-01T02:36:49.420Z,1.83
2023-11-01T02:39:20.616Z,2.03
2023-11-01T02:41:50.288Z,2.35
2023-11-01T02:44:19.908Z,2.33
2023-11-01T02:46:50.465Z,2.08
2023-11-01T02:49:20.047Z,2.20
2023-11-01T02:51:49.677Z,2.17
2023-11-01T02:54:20.612Z,2.60
2023-11-01T02:56:50.291Z,2.47
2023-11-01T02:59:20.075Z,2.53
2023-11-01T03:01:51.126Z,2.25
2023-11-01T03:04:20.684Z,2.28
2023-11-01T03:06:50.317Z,2.60
2023-11-01T03:09:21.520Z,2.00
2023-11-01T03:11:51.156Z,2.67
2023-11-01T03:14:20.837Z,2.47
2023-11-01T03:16:50.568Z,2.60
2023-11-01T03:19:20.107Z,2.25
2023-11-01T03:21:49.715Z,2.33
2023-11-01T03:24:20.946Z,2.60
2023-11-01T03:26:50.563Z,2.28
2023-11-01T03:29:20.128Z,2.85
2023-11-01T03:31:49.974Z,2.38
2023-11-01T03:34:19.520Z,2.45
2023-11-01T03:36:49.428Z,2.35
2023-11-01T03:39:22.250Z,2.50
2023-11-01T03:41:51.822Z,2.17
2023-11-01T03:47:28.920Z,2.33
2023-11-01T03:49:58.695Z,2.90
2023-11-01T03:52:28.324Z,2.63
2023-11-01T03:54:58.089Z,2.58
2023-11-01T03:57:27.552Z,2.38
2023-11-01T03:59:58.027Z,2.92
2023-11-01T04:02:29.190Z,2.80
2023-11-01T04:04:58.765Z,3.20
2023-11-01T04:07:28.291Z,3.00
2023-11-01T04:09:58.008Z,2.63
2023-11-01T04:12:27.622Z,1.48
2023-11-01T04:14:57.124Z,0.90
2023-11-01T04:17:28.203Z,1.27
2023-11-01T04:20:00.384Z,1.40
2023-11-01T04:22:30.287Z,0.47
2023-11-01T04:24:59.812Z,0.43
2023-11-01T04:27:29.250Z,0.38
2023-11-01T04:29:58.833Z,0.50
2023-11-01T04:32:31.516Z,0.32
2023-11-01T04:35:01.561Z,0.40
2023-11-01T04:37:31.260Z,0.50
2023-11-01T04:40:00.831Z,0.32
2023-11-01T04:42:30.717Z,0.40
2023-11-01T04:45:00.229Z,0.30
2023-11-01T04:47:31.906Z,0.43
2023-11-01T04:50:01.936Z,0.40
2023-11-01T04:52:31.946Z,0.68
2023-11-01T04:55:01.466Z,0.52
2023-11-01T04:57:31.243Z,0.60
2023-11-01T05:00:01.015Z,0.68
2023-11-01T05:02:32.016Z,0.80
2023-11-01T05:05:01.840Z,0.75
2023-11-01T05:07:31.537Z,0.70
2023-11-01T05:10:01.235Z,0.65
2023-11-01T05:12:31.828Z,0.75
2023-11-01T05:15:02.394Z,0.57
2023-11-01T05:17:33.537Z,0.60
2023-11-01T05:20:05.455Z,0.90
2023-11-01T05:22:35.068Z,0.75
2023-11-01T05:25:14.988Z,0.70
2023-11-01T05:27:45.385Z,0.98
2023-11-01T05:30:18.931Z,0.77
2023-11-01T05:32:50.420Z,0.80
2023-11-01T05:35:20.421Z,1.10
2023-11-01T05:37:50.046Z,0.80
2023-11-01T05:40:19.816Z,2.55
2023-11-01T05:42:50.369Z,1.52
2023-11-01T05:45:21.876Z,2.63
2023-11-01T05:47:54.278Z,2.10
2023-11-01T05:50:26.794Z,1.15
2023-11-01T05:55:38.031Z,1.50
2023-11-01T05:58:18.213Z,1.73
2023-11-01T06:00:48.806Z,1.05
2023-11-01T06:03:21.484Z,2.08
2023-11-01T06:05:51.233Z,3.55
2023-11-01T06:08:20.989Z,2.80
2023-11-01T06:10:50.593Z,1.50
2023-11-01T06:13:20.510Z,1.60
2023-11-01T06:15:51.318Z,1.73
2023-11-01T06:18:23.511Z,2.50
2023-11-01T06:20:53.297Z,2.50
2023-11-01T06:23:23.061Z,2.80
2023-11-01T06:25:52.590Z,3.28
2023-11-01T06:28:22.618Z,3.45
2023-11-01T06:30:52.753Z,3.17
2023-11-01T06:33:23.898Z,3.33
2023-11-01T06:35:53.649Z,3.30
2023-11-01T06:38:23.338Z,2.90
2023-11-01T06:40:53.041Z,3.15
2023-11-01T06:43:22.616Z,3.20
2023-11-01T06:47:28.011Z,3.50
2023-11-01T06:49:57.582Z,3.05
2023-11-01T06:52:27.062Z,3.00
2023-11-01T06:54:56.749Z,2.80
2023-11-01T06:57:26.339Z,1.63
2023-11-01T06:59:55.962Z,1.30
2023-11-01T07:02:27.938Z,1.10
2023-11-01T07:04:57.531Z,1.27
2023-11-01T07:07:27.328Z,0.40
2023-11-01T07:09:58.046Z,0.32
2023-11-01T07:12:27.626Z,0.40
2023-11-01T07:14:57.281Z,0.30
2023-11-01T07:17:29.706Z,0.35
2023-11-01T07:20:00.273Z,0.40
2023-11-01T07:22:30.168Z,0.30
2023-11-01T07:24:59.750Z,0.20
2023-11-01T07:27:29.816Z,0.40
2023-11-01T07:29:59.550Z,0.32
2023-11-01T07:32:30.685Z,0.40
2023-11-01T07:35:00.419Z,0.20
2023-11-01T07:37:30.041Z,0.20
2023-11-01T07:40:00.664Z,0.10
2023-11-01T07:42:30.505Z,0.77
2023-11-01T07:45:00.088Z,1.80
2023-11-01T07:47:31.265Z,2.10
2023-11-01T07:50:01.125Z,0.20
2023-11-01T07:52:30.811Z,0.22
2023-11-01T07:55:00.565Z,0.30
2023-11-01T07:57:30.228Z,0.13
2023-11-01T07:59:59.801Z,0.10
2023-11-01T08:02:30.906Z,0.20
2023-11-01T08:05:00.707Z,0.10
2023-11-01T08:07:30.300Z,0.20
2023-11-01T08:09:59.967Z,0.10
2023-11-01T08:12:29.459Z,0.10
2023-11-01T08:14:59.070Z,0.17
2023-11-01T08:17:30.294Z,0.45
2023-11-01T08:20:02.657Z,0.20
2023-11-01T08:22:32.806Z,0.22
2023-11-01T08:25:02.360Z,0.20
2023-11-01T08:27:31.969Z,0.10
2023-11-01T08:30:01.639Z,0.10
2023-11-01T08:32:32.713Z,0.25
2023-11-01T08:35:02.268Z,0.20
2023-11-01T08:37:31.789Z,0.20
2023-11-01T08:40:01.475Z,0.20
2023-11-01T08:42:31.588Z,0.10
2023-11-01T08:45:01.036Z,0.20
2023-11-01T08:47:40.877Z,0.60
2023-11-01T08:50:13.711Z,0.35
2023-11-01T08:52:44.462Z,0.20
2023-11-01T08:55:14.966Z,0.30
2023-11-01T08:57:47.328Z,0.20
2023-11-01T09:00:17.788Z,0.20
2023-11-01T09:02:49.051Z,0.20
2023-11-01T09:05:20.240Z,0.70
2023-11-01T09:07:51.519Z,0.20
2023-11-01T09:10:21.504Z,0.20
2023-11-01T09:12:51.010Z,0.40
2023-11-01T09:15:20.686Z,0.60
2023-11-01T09:17:51.820Z,0.30
2023-11-01T09:20:21.322Z,0.20
2023-11-01T09:22:50.859Z,0.20
2023-11-01T09:25:20.481Z,0.20
2023-11-01T09:27:50.063Z,3.55
2023-11-01T09:30:19.852Z,3.05
2023-11-01T09:32:51.007Z,0.77
2023-11-01T09:35:20.551Z,0.30
2023-11-01T09:37:50.163Z,0.40
2023-11-01T09:40:20.581Z,0.63
2023-11-01T09:42:50.964Z,1.60
2023-11-01T09:47:29.244Z,14.27
2023-11-01T09:49:59.641Z,3.97
2023-11-01T09:52:29.600Z,0.65
2023-11-01T09:54:59.115Z,0.30
2023-11-01T09:57:31.628Z,0.60
2023-11-01T10:00:01.665Z,1.08
2023-11-01T10:02:33.791Z,0.20
2023-11-01T10:07:33.677Z,0.35
2023-11-01T10:10:06.192Z,0.10
2023-11-01T10:12:35.874Z,0.10
2023-11-01T10:15:06.714Z,0.63
2023-11-01T10:17:37.928Z,6.72
2023-11-01T10:20:10.761Z,6.97
2023-11-01T10:22:40.467Z,4.25
2023-11-01T10:25:11.106Z,0.40
2023-11-01T10:27:42.654Z,0.20
2023-11-01T10:30:13.746Z,0.20
2023-11-01T10:32:58.534Z,0.20
2023-11-01T10:35:28.871Z,0.10
2023-11-01T10:38:00.630Z,0.20
2023-11-01T10:40:31.157Z,0.20
2023-11-01T10:43:02.459Z,0.30
2023-11-01T10:45:33.429Z,0.30
2023-11-01T10:48:07.642Z,0.20
2023-11-01T10:50:38.947Z,0.40
2023-11-01T10:53:10.383Z,0.25
2023-11-01T10:55:40.388Z,3.50
2023-11-01T10:58:15.868Z,0.68
2023-11-01T11:00:52.164Z,1.90
2023-11-01T11:03:41.244Z,0.50
2023-11-01T11:06:13.321Z,0.50
2023-11-01T11:08:43.027Z,0.65
2023-11-01T11:11:19.644Z,0.50
2023-11-01T11:13:52.644Z,1.08
2023-11-01T11:16:22.573Z,0.70
2023-11-01T11:19:00.366Z,1.38
2023-11-01T11:22:03.837Z,1.25
2023-11-01T11:24:58.605Z,1.70
2023-11-01T11:27:53.713Z,1.50
2023-11-01T11:31:13.668Z,2.35
2023-11-01T11:34:15.956Z,0.70
2023-11-01T11:37:09.941Z,0.60
2023-11-01T11:40:08.395Z,0.30
2023-11-01T11:42:54.117Z,0.30
2023-11-01T11:45:33.091Z,0.22
2023-11-01T11:48:04.990Z,0.20
2023-11-01T11:50:36.214Z,0.22
2023-11-01T11:53:05.998Z,0.30
2023-11-01T11:55:47.545Z,0.20
2023-11-01T11:58:18.344Z,0.20
2023-11-01T12:00:49.554Z,0.20
2023-11-01T12:03:26.901Z,0.20
2023-11-01T12:06:02.401Z,0.30
2023-11-01T12:08:41.969Z,0.60
2023-11-01T12:11:12.310Z,0.20
2023-11-01T12:13:49.697Z,0.47
2023-11-01T12:16:29.163Z,0.20
2023-11-01T12:19:19.782Z,0.32
2023-11-01T12:21:54.033Z,0.30
2023-11-01T12:24:27.730Z,0.20
2023-11-01T12:27:07.945Z,0.10
2023-11-01T12:29:48.504Z,0.20
2023-11-01T12:32:19.687Z,0.10
2023-11-01T12:35:07.207Z,0.10
2023-11-01T12:37:40.352Z,0.13
2023-11-01T12:40:13.704Z,0.10
2023-11-01T12:42:47.599Z,0.55
2023-11-01T12:47:30.041Z,0.10
2023-11-01T12:50:00.071Z,0.10
2023-11-01T12:52:29.655Z,0.10
2023-11-01T12:54:59.279Z,0.10
2023-11-01T12:57:28.921Z,0.05
2023-11-01T12:59:58.472Z,0.08
2023-11-01T13:02:32.044Z,0.00
2023-11-01T13:05:01.785Z,0.05
2023-11-01T13:07:32.777Z,0.00
2023-11-01T13:10:02.856Z,0.00
2023-11-01T13:12:33.071Z,0.10
2023-11-01T13:15:02.855Z,0.10
2023-11-01T13:17:33.908Z,0.10
2023-11-01T13:20:03.663Z,0.10
2023-11-01T13:22:33.258Z,0.03
2023-11-01T13:25:02.872Z,0.00
2023-11-01T13:27:33.703Z,0.10
2023-11-01T13:30:03.553Z,0.10
2023-11-01T13:32:34.710Z,0.10
2023-11-01T13:35:04.880Z,0.10
2023-11-01T13:37:34.347Z,0.10
2023-11-01T13:40:04.935Z,0.17
2023-11-01T13:42:34.841Z,0.10
2023-11-01T13:45:05.167Z,0.20
2023-11-01T13:47:36.876Z,0.10
2023-11-01T13:50:07.340Z,0.10
2023-11-01T13:52:37.118Z,0.10
2023-11-01T13:55:07.865Z,0.17
2023-11-01T13:57:37.475Z,0.20
2023-11-01T14:00:10.138Z,0.15
2023-11-01T14:02:41.265Z,0.30
2023-11-01T14:05:11.126Z,0.20
2023-11-01T14:07:40.672Z,0.20
2023-11-01T14:10:11.335Z,0.17
2023-11-01T14:12:46.316Z,0.10
2023-11-01T14:15:15.945Z,0.10
2023-11-01T14:17:47.060Z,0.15
2023-11-01T14:20:16.936Z,0.20
2023-11-01T14:22:49.988Z,0.10
2023-11-01T14:25:19.649Z,0.10
2023-11-01T14:27:50.696Z,0.20
2023-11-01T14:30:21.142Z,0.10
2023-11-01T14:32:52.313Z,0.10
2023-11-01T14:35:22.158Z,0.10
2023-11-01T14:37:51.728Z,0.20
2023-11-01T14:40:21.554Z,0.20
2023-11-01T14:42:51.487Z,0.38
2023-11-01T14:45:21.256Z,0.55
2023-11-01T14:47:52.975Z,0.50
2023-11-01T14:50:22.462Z,0.30
2023-11-01T14:52:52.183Z,0.63
2023-11-01T14:55:22.068Z,0.63
2023-11-01T14:57:51.687Z,0.77
2023-11-01T15:00:21.996Z,1.08
2023-11-01T15:02:53.035Z,1.20
2023-11-01T15:05:25.200Z,2.30
2023-11-01T15:07:55.064Z,2.47
2023-11-01T15:10:24.564Z,4.43
2023-11-01T15:12:54.080Z,7.50
2023-11-01T15:15:25.077Z,5.40
2023-11-01T15:17:56.646Z,6.22
2023-11-01T15:20:27.998Z,6.87
2023-11-01T15:22:57.908Z,7.72
2023-11-01T15:25:28.822Z,24.73
2023-11-01T15:27:58.227Z,21.15
2023-11-01T15:30:27.979Z,15.38
2023-11-01T15:32:59.108Z,10.73
2023-11-01T15:35:28.680Z,6.28
2023-11-01T15:37:58.206Z,7.40
2023-11-01T15:40:28.618Z,7.93
2023-11-01T15:42:58.436Z,7.15
2023-11-01T15:47:27.746Z,4.63
2023-11-01T15:49:57.369Z,5.30
2023-11-01T15:52:27.088Z,6.53
2023-11-01T15:54:57.506Z,6.80
2023-11-01T15:57:27.188Z,7.07
2023-11-01T15:59:56.768Z,5.05
2023-11-01T16:02:30.408Z,8.02
2023-11-01T16:05:01.989Z,10.75
2023-11-01T16:07:32.855Z,16.27
2023-11-01T16:10:03.928Z,11.23
2023-11-01T16:12:34.049Z,16.98
2023-11-01T16:15:04.677Z,34.20
2023-11-01T16:17:35.982Z,39.42
2023-11-01T16:20:06.859Z,41.20
2023-11-01T16:22:36.516Z,40.67
2023-11-01T16:25:06.993Z,31.33
2023-11-01T16:27:36.985Z,13.70
2023-11-01T16:30:09.225Z,9.60
2023-11-01T16:32:40.365Z,10.00
2023-11-01T16:35:11.183Z,9.35
2023-11-01T16:37:40.708Z,10.38
2023-11-01T16:40:11.505Z,9.60
2023-11-01T16:42:41.176Z,8.75
2023-11-01T16:45:12.878Z,6.20
2023-11-01T16:47:44.726Z,4.93
2023-11-01T16:50:14.348Z,4.47
2023-11-01T16:52:44.277Z,3.40
2023-11-01T16:55:13.898Z,2.63
2023-11-01T16:57:43.615Z,2.45
2023-11-01T17:00:14.679Z,2.10
2023-11-01T17:02:50.648Z,2.28
2023-11-01T17:05:20.883Z,2.70
2023-11-01T17:07:50.359Z,1.33
2023-11-01T17:10:19.887Z,1.40
2023-11-01T17:12:49.531Z,1.38
2023-11-01T17:15:25.730Z,1.65
2023-11-01T17:17:57.472Z,0.80
2023-11-01T17:20:27.321Z,0.87
2023-11-01T17:23:02.287Z,0.47
2023-11-01T17:26:31.828Z,0.50
2023-11-01T17:29:02.866Z,0.68
2023-11-01T17:31:44.293Z,0.40
2023-11-01T17:34:23.106Z,0.38
2023-11-01T17:36:53.299Z,0.30
2023-11-01T17:39:22.954Z,0.30
2023-11-01T17:42:02.450Z,0.40
2023-11-01T17:44:35.545Z,0.20
2023-11-01T17:47:09.079Z,0.60
2023-11-01T17:49:56.747Z,0.30
2023-11-01T17:52:40.217Z,0.40
2023-11-01T17:55:13.326Z,0.30
2023-11-01T17:57:43.088Z,0.30
2023-11-01T18:00:17.002Z,0.30
2023-11-01T18:03:22.111Z,0.30
2023-11-01T18:05:54.731Z,0.20
2023-11-01T18:08:31.072Z,0.20
2023-11-01T18:11:00.961Z,1.27
2023-11-01T18:13:32.240Z,0.20
2023-11-01T18:16:04.276Z,0.20
2023-11-01T18:18:51.292Z,0.20
2023-11-01T18:21:29.269Z,0.20
2023-11-01T18:24:01.565Z,0.30
2023-11-01T18:26:32.485Z,0.30
2023-11-01T18:29:03.750Z,0.20
2023-11-01T18:31:36.851Z,0.20
2023-11-01T18:34:08.871Z,0.63
2023-11-01T18:36:44.873Z,0.43
2023-11-01T18:39:14.758Z,0.20
2023-11-01T18:41:46.009Z,0.20
2023-11-01T18:47:34.325Z,0.20
2023-11-01T18:50:07.985Z,0.43
2023-11-01T18:52:37.636Z,0.30
2023-11-01T18:55:12.178Z,0.20
2023-11-01T18:57:42.636Z,0.30
2023-11-01T19:00:22.988Z,0.30
2023-11-01T19:03:05.572Z,0.30
2023-11-01T19:05:35.734Z,0.30
2023-11-01T19:08:05.841Z,0.45
2023-11-01T19:10:37.203Z,0.50
2023-11-01T19:13:07.198Z,0.60
2023-11-01T19:16:16.101Z,0.60
2023-11-01T19:18:50.105Z,0.47
2023-11-01T19:21:20.144Z,0.88
2023-11-01T19:23:50.281Z,0.40
2023-11-01T19:26:24.500Z,0.73
2023-11-01T19:28:54.887Z,1.58
2023-11-01T19:31:24.622Z,1.65
2023-11-01T19:33:56.169Z,1.48
2023-11-01T19:36:27.325Z,1.30
2023-11-01T19:38:56.969Z,1.55
2023-11-01T19:41:26.521Z,1.60
2023-11-01T19:44:00.009Z,1.60
2023-11-01T19:46:30.191Z,1.45
2023-11-01T19:49:01.410Z,1.83
2023-11-01T19:51:31.106Z,2.33
2023-11-01T19:54:00.652Z,2.15
2023-11-01T19:56:30.268Z,2.05
2023-11-01T19:59:00.604Z,2.33
2023-11-01T20:01:32.116Z,1.90
2023-11-01T20:04:03.509Z,1.60
2023-11-01T20:06:33.108Z,1.50
2023-11-01T20:09:02.783Z,1.30
2023-11-01T20:11:32.460Z,1.42
2023-11-01T20:14:02.688Z,2.20
2023-11-01T20:16:32.364Z,2.05
2023-11-01T20:19:03.512Z,2.10
2023-11-01T20:21:33.816Z,1.75
2023-11-01T20:24:05.337Z,2.08
2023-11-01T20:26:35.023Z,2.38
2023-11-01T20:29:05.489Z,2.05
2023-11-01T20:31:35.866Z,2.03
2023-11-01T20:34:06.954Z,2.08
2023-11-01T20:36:36.661Z,2.28
2023-11-01T20:39:06.930Z,1.70
2023-11-01T20:41:37.336Z,1.80
2023-11-01T20:44:07.491Z,1.90
2023-11-01T20:46:37.272Z,1.83
2023-11-01T20:49:11.554Z,2.42
2023-11-01T20:51:41.211Z,2.60
2023-11-01T20:54:11.001Z,1.98
2023-11-01T20:56:41.252Z,2.28
2023-11-01T20:59:10.787Z,2.53
2023-11-01T21:01:40.393Z,1.90
2023-11-01T21:04:11.440Z,2.30
2023-11-01T21:06:41.242Z,1.90
2023-11-01T21:09:12.360Z,2.50
2023-11-01T21:11:43.795Z,2.40
2023-11-01T21:14:13.278Z,1.88
2023-11-01T21:16:44.048Z,2.03
2023-11-01T21:19:15.337Z,2.05
2023-11-01T21:21:45.140Z,1.60
2023-11-01T21:24:19.913Z,2.63
2023-11-01T21:26:49.967Z,3.20
2023-11-01T21:29:19.486Z,2.90
2023-11-01T21:31:49.194Z,1.92
2023-11-01T21:34:20.416Z,2.00
2023-11-01T21:36:51.757Z,2.38
2023-11-01T21:39:21.502Z,2.55
2023-11-01T21:41:51.258Z,2.83
2023-11-01T21:47:38.228Z,2.10
2023-11-01T21:50:52.364Z,1.88
2023-11-01T21:53:23.904Z,1.52
2023-11-01T21:55:56.395Z,1.55
2023-11-01T21:58:27.143Z,1.73
2023-11-01T22:01:00.156Z,1.98
2023-11-01T22:03:42.824Z,2.08
2023-11-01T22:06:16.741Z,2.45
2023-11-01T22:09:02.254Z,2.63
2023-11-01T22:11:34.426Z,5.22
2023-11-01T22:14:09.292Z,4.50
2023-11-01T22:16:40.004Z,4.78
2023-11-01T22:19:33.921Z,3.10
2023-11-01T22:22:06.845Z,2.42
2023-11-01T22:24:40.924Z,2.28
2023-11-01T22:27:13.160Z,2.05
2023-11-01T22:29:47.944Z,1.77
2023-11-01T22:32:25.842Z,2.40
2023-11-01T22:34:57.686Z,1.95
2023-11-01T22:37:29.727Z,2.50
2023-11-01T22:39:59.847Z,1.80
2023-11-01T22:42:33.188Z,1.88
2023-11-01T22:45:03.861Z,1.67
2023-11-01T22:47:33.705Z,2.10
2023-11-01T22:50:04.826Z,2.13
2023-11-01T22:52:34.368Z,2.15
2023-11-01T22:55:04.767Z,1.95
2023-11-01T22:57:34.345Z,2.58
2023-11-01T23:00:08.098Z,2.28
2023-11-01T23:02:38.293Z,2.22
2023-11-01T23:05:10.309Z,2.13
2023-11-01T23:07:39.953Z,1.98
2023-11-01T23:10:10.940Z,2.35
2023-11-01T23:12:40.942Z,2.28
2023-11-01T23:15:12.270Z,2.80
2023-11-01T23:17:42.535Z,2.65
2023-11-01T23:20:15.598Z,2.30
2023-11-01T23:22:45.187Z,2.25
2023-11-01T23:25:14.664Z,1.75
2023-11-01T23:27:44.315Z,2.03
2023-11-01T23:30:44.765Z,1.90
2023-11-01T23:33:14.356Z,2.30
2023-11-01T23:35:46.548Z,2.20
2023-11-01T23:38:17.249Z,2.20
2023-11-01T23:40:46.845Z,1.98
2023-11-01T23:43:17.402Z,2.22
2023-11-01T23:46:17.141Z,2.72
2023-11-01T23:48:48.678Z,2.63
2023-11-01T23:51:59.708Z,2.28
2023-11-01T23:54:30.666Z,2.33
2023-11-01T23:57:01.057Z,2.13
2023-11-01T23:59:31.546Z,2.50
